Time;durP1;ratioP1;P1;durP2;ratioP2;P2;SDS_P1;SDS_P2;PMS_P1;PMS_P2;Temp;Humidity;BMP_temperature;BMP_pressure;BME280_temperature;BME280_humidity;BME280_pressure;Samples;Min_cycle;Max_cycle;Signal;HPM_P1;HPM_P2
2022/12/18 00:03:47;;;;;;;51.83;28.80;;;;;;;-10.34;100.00;102619.09;10276054;28;20394;-80
2022/12/18 00:08:48;;;;;;;58.97;33.37;;;;;;;-10.47;100.00;102620.38;10275499;28;20427;-81
2022/12/18 00:13:49;;;;;;;49.83;30.38;;;;;;;-10.48;100.00;102609.34;10277243;28;20274;-81
2022/12/18 00:18:51;;;;;;;55.15;31.55;;;;;;;-10.48;100.00;102619.47;10278148;28;20431;-81
2022/12/18 00:23:52;;;;;;;53.03;27.43;;;;;;;-10.40;100.00;102620.69;10259429;28;20090;-81
2022/12/18 00:28:52;;;;;;;65.82;32.42;;;;;;;-10.37;100.00;102613.53;10277021;28;20049;-80
2022/12/18 00:33:54;;;;;;;56.10;28.15;;;;;;;-10.23;100.00;102605.59;10259456;28;20042;-81
2022/12/18 00:38:56;;;;;;;45.50;27.60;;;;;;;-10.20;100.00;102611.16;10271822;28;20043;-80
2022/12/18 00:43:56;;;;;;;45.63;26.00;;;;;;;-10.25;100.00;102606.97;10236871;28;20459;-81
2022/12/18 00:48:57;;;;;;;56.47;29.87;;;;;;;-10.17;100.00;102608.16;10270755;28;20073;-79
2022/12/18 00:53:57;;;;;;;48.58;24.83;;;;;;;-10.26;100.00;102601.66;10274700;28;20423;-80
2022/12/18 00:58:58;;;;;;;45.70;28.03;;;;;;;-10.49;100.00;102606.56;10261613;28;20106;-79
2022/12/18 01:04:00;;;;;;;50.10;25.83;;;;;;;-10.61;100.00;102595.44;10246245;28;20452;-79
2022/12/18 01:09:01;;;;;;;50.93;29.17;;;;;;;-10.62;100.00;102591.94;10279040;28;20105;-81
2022/12/18 01:14:01;;;;;;;48.83;26.90;;;;;;;-10.58;100.00;102597.50;10265072;28;20046;-80
2022/12/18 01:19:02;;;;;;;42.17;23.77;;;;;;;-10.55;100.00;102601.47;10258201;28;20759;-79
2022/12/18 01:24:02;;;;;;;62.87;27.40;;;;;;;-10.64;100.00;102600.91;10244611;28;20142;-81
2022/12/18 01:29:03;;;;;;;45.38;22.70;;;;;;;-10.65;100.00;102608.28;10275833;28;20121;-81
2022/12/18 01:34:04;;;;;;;36.53;23.97;;;;;;;-10.70;100.00;102602.47;10256936;28;20039;-80
2022/12/18 01:39:10;;;;;;;33.42;21.27;;;;;;;-10.72;100.00;102598.75;10237319;28;20119;-80
2022/12/18 01:44:46;;;;;;;43.93;24.53;;;;;;;-10.56;100.00;102592.03;10254673;28;20054;-80
2022/12/18 01:49:46;;;;;;;41.63;24.33;;;;;;;-10.47;100.00;102590.00;10254932;28;20046;-80
2022/12/18 01:54:48;;;;;;;37.40;20.83;;;;;;;-10.48;100.00;102599.22;10280695;28;20117;-80
2022/12/18 01:59:49;;;;;;;;;;;;;;;-10.50;100.00;102592.06;10281115;28;20050;-80
2022/12/18 02:04:50;;;;;;;31.52;19.30;;;;;;;-10.70;100.00;102589.81;10281016;28;19929;-80
2022/12/18 02:10:10;;;;;;;39.87;22.70;;;;;;;-10.69;100.00;102579.00;10256140;28;20181;-80
2022/12/18 02:15:16;;;;;;;38.97;23.73;;;;;;;-10.69;100.00;102593.28;10260396;28;20054;-80
2022/12/18 02:20:20;;;;;;;39.50;19.63;;;;;;;-10.68;100.00;102593.50;10321182;28;20070;-80
2022/12/18 02:25:54;;;;;;;39.27;20.10;;;;;;;-10.65;100.00;102586.41;10244782;28;20109;-81
2022/12/18 02:30:56;;;;;;;35.40;21.67;;;;;;;-10.65;100.00;102580.44;10282609;28;20035;-81
2022/12/18 02:35:57;;;;;;;43.92;22.38;;;;;;;-10.67;100.00;102584.31;10260258;28;20035;-82
2022/12/18 02:40:57;;;;;;;42.50;20.23;;;;;;;-10.68;100.00;102583.38;10262839;28;20776;-81
2022/12/18 02:45:59;;;;;;;33.23;18.57;;;;;;;-10.76;100.00;102591.34;10247268;28;20070;-81
2022/12/18 02:51:02;;;;;;;38.00;22.33;;;;;;;-10.82;100.00;102573.59;10279945;28;20109;-81
2022/12/18 02:56:20;;;;;;;37.70;22.53;;;;;;;-10.70;100.00;102574.63;10272318;28;20041;-81
2022/12/18 03:01:35;;;;;;;34.63;20.07;;;;;;;-10.76;100.00;102563.53;10259218;28;20062;-80
2022/12/18 03:06:41;;;;;;;46.80;22.37;;;;;;;-10.81;100.00;102554.28;10279089;28;20047;-80
2022/12/18 03:17:02;;;;;;;31.90;21.10;;;;;;;-10.81;100.00;102546.69;10262715;28;20484;-80
2022/12/18 03:22:03;;;;;;;42.33;23.37;;;;;;;-10.95;100.00;102541.97;10248559;28;20141;-81
2022/12/18 03:27:06;;;;;;;42.42;21.67;;;;;;;-11.00;100.00;102551.34;10259826;28;20143;-80
2022/12/18 03:32:11;;;;;;;33.60;20.07;;;;;;;-11.00;100.00;102545.38;10263920;28;20089;-80
2022/12/18 03:37:12;;;;;;;50.13;22.37;;;;;;;-10.83;100.00;102537.94;10255833;28;20054;-81
2022/12/18 03:42:12;;;;;;;38.27;19.43;;;;;;;-10.96;100.00;102535.97;10279608;28;20066;-80
2022/12/18 03:47:16;;;;;;;35.57;19.73;;;;;;;-10.91;100.00;102539.25;10278328;28;20073;-81
2022/12/18 03:52:22;;;;;;;36.03;21.40;;;;;;;-10.89;100.00;102535.38;10277004;28;20071;-81
2022/12/18 03:57:25;;;;;;;39.53;23.80;;;;;;;-10.72;100.00;102535.50;10277048;28;20097;-81
2022/12/18 04:02:25;;;;;;;32.10;19.33;;;;;;;-10.75;100.00;102540.06;10235758;28;20043;-80
2022/12/18 04:07:26;;;;;;;36.78;19.50;;;;;;;-10.89;100.00;102527.78;10283804;28;20069;-80
2022/12/18 04:12:27;;;;;;;32.90;18.37;;;;;;;-10.83;100.00;102525.28;10283403;28;20045;-81
2022/12/18 04:17:27;;;;;;;41.90;21.10;;;;;;;-10.67;100.00;102532.09;10263051;28;20039;-81
2022/12/18 04:22:28;;;;;;;32.30;17.15;;;;;;;-10.66;100.00;102512.78;10236965;28;20385;-81
2022/12/18 04:27:29;;;;;;;29.83;18.37;;;;;;;-10.56;100.00;102500.91;10266921;28;20039;-85
2022/12/18 04:32:29;;;;;;;61.22;28.25;;;;;;;-10.27;100.00;102501.97;10278147;28;20045;-81
2022/12/18 04:37:30;;;;;;;38.37;20.97;;;;;;;-10.09;100.00;102497.94;10275780;28;20043;-82
2022/12/18 04:42:30;;;;;;;59.27;28.23;;;;;;;-9.83;100.00;102485.84;10237258;28;20050;-82
2022/12/18 04:47:31;;;;;;;35.10;22.70;;;;;;;-9.67;100.00;102476.44;10268895;28;20141;-83
2022/12/18 04:52:31;;;;;;;31.40;21.77;;;;;;;-9.74;100.00;102488.19;10255775;28;20043;-80
2022/12/18 04:57:32;;;;;;;53.20;24.13;;;;;;;-9.63;100.00;102504.13;10270962;28;20390;-80
2022/12/18 05:02:32;;;;;;;34.73;19.43;;;;;;;-9.75;100.00;102506.59;10284620;28;20062;-81
2022/12/18 05:07:33;;;;;;;31.17;18.30;;;;;;;-9.86;100.00;102523.38;10283072;28;20130;-80
2022/12/18 05:12:33;;;;;;;33.23;20.47;;;;;;;-10.03;100.00;102529.28;10267175;28;20058;-79
2022/12/18 05:17:34;;;;;;;29.93;19.43;;;;;;;-10.13;100.00;102546.25;10283380;28;20047;-78
2022/12/18 05:22:35;;;;;;;33.23;19.00;;;;;;;-10.14;100.00;102536.81;10282248;28;20045;-80
2022/12/18 05:27:35;;;;;;;36.83;21.95;;;;;;;-10.15;100.00;102540.03;10283264;28;20145;-79
2022/12/18 05:32:36;;;;;;;34.27;21.53;;;;;;;-10.31;100.00;102537.63;10282335;28;20047;-80
2022/12/18 05:37:36;;;;;;;35.13;21.83;;;;;;;-10.30;100.00;102534.41;10283675;28;20031;-80
2022/12/18 05:42:37;;;;;;;38.17;22.03;;;;;;;-10.37;100.00;102518.94;10281210;28;20541;-81
2022/12/18 05:47:37;;;;;;;30.00;19.07;;;;;;;-10.41;100.00;102502.38;10281353;28;20041;-80
2022/12/18 05:52:38;;;;;;;32.03;21.37;;;;;;;-10.33;100.00;102522.19;10279452;28;20041;-79
2022/12/18 05:57:38;;;;;;;38.57;20.23;;;;;;;-10.42;100.00;102519.88;10281804;28;20129;-79
2022/12/18 06:02:39;;;;;;;33.80;20.03;;;;;;;-10.58;100.00;102516.50;10267941;28;20434;-80
2022/12/18 06:07:40;;;;;;;32.30;16.90;;;;;;;-10.70;100.00;102505.38;10275407;28;20100;-80
2022/12/18 06:12:40;;;;;;;32.80;19.20;;;;;;;-10.62;100.00;102505.00;10270321;28;20034;-80
2022/12/18 06:17:41;;;;;;;40.10;21.80;;;;;;;-10.41;100.00;102492.25;10268167;28;20439;-80
2022/12/18 06:22:42;;;;;;;42.17;22.70;;;;;;;-10.38;100.00;102507.88;10278469;28;20574;-80
2022/12/18 06:27:42;;;;;;;42.57;25.20;;;;;;;-10.38;100.00;102490.16;10253334;28;20092;-81
2022/12/18 06:32:43;;;;;;;38.03;21.87;;;;;;;-10.25;100.00;102504.72;10279678;28;20387;-80
2022/12/18 06:37:43;;;;;;;37.53;21.60;;;;;;;-10.20;100.00;102499.72;10278106;28;20652;-80
2022/12/18 06:42:44;;;;;;;46.70;24.07;;;;;;;-10.22;100.00;102502.69;10276591;28;20121;-79
2022/12/18 06:47:44;;;;;;;41.07;22.97;;;;;;;-10.22;100.00;102501.09;10279509;28;20487;-82
2022/12/18 06:52:45;;;;;;;41.27;22.33;;;;;;;-10.35;100.00;102490.63;10274608;28;20034;-81
2022/12/18 06:57:45;;;;;;;40.10;25.43;;;;;;;-10.44;100.00;102509.47;10256458;28;20502;-83
2022/12/18 07:02:46;;;;;;;33.63;18.77;;;;;;;-10.55;100.00;102499.28;10278054;28;20047;-79
2022/12/18 07:07:49;;;;;;;51.73;24.03;;;;;;;-10.57;100.00;102493.06;10280259;28;20046;-81
2022/12/18 07:12:50;;;;;;;40.60;21.10;;;;;;;-10.55;100.00;102497.69;10265287;28;20043;-83
2022/12/18 07:17:51;;;;;;;36.43;22.67;;;;;;;-10.41;100.00;102497.31;10279832;28;20042;-83
2022/12/18 07:22:52;;;;;;;37.65;21.38;;;;;;;-10.45;100.00;102484.84;10277285;28;20368;-85
2022/12/18 07:27:52;;;;;;;46.63;23.00;;;;;;;-10.40;100.00;102486.50;10269218;28;20047;-80
2022/12/18 07:32:53;;;;;;;34.40;20.83;;;;;;;-10.43;100.00;102469.91;10250849;28;20121;-81
2022/12/18 07:37:53;;;;;;;30.97;18.37;;;;;;;-10.44;100.00;102460.47;10274479;28;20162;-81
2022/12/18 07:42:54;;;;;;;40.07;20.97;;;;;;;-10.40;100.00;102442.56;10272344;28;20089;-82
2022/12/18 07:47:54;;;;;;;42.17;23.77;;;;;;;-10.42;100.00;102444.81;10260490;28;20129;-81
2022/12/18 07:52:55;;;;;;;42.90;23.30;;;;;;;-10.18;100.00;102437.56;10270520;28;20035;-81
2022/12/18 07:57:55;;;;;;;45.20;22.30;;;;;;;-10.05;100.00;102426.81;10271457;28;20054;-80
2022/12/18 08:02:57;;;;;;;38.57;19.00;;;;;;;-9.81;100.00;102429.63;10276566;28;20125;-81
2022/12/18 08:07:58;;;;;;;40.77;23.27;;;;;;;-9.75;100.00;102405.22;10258116;28;20756;-82
2022/12/18 08:12:58;;;;;;;43.55;20.60;;;;;;;-9.71;100.00;102406.63;10274062;28;20547;-81
2022/12/18 08:17:59;;;;;;;41.57;24.03;;;;;;;-9.64;100.00;102413.56;10275385;28;20057;-81
2022/12/18 08:22:59;;;;;;;44.27;25.17;;;;;;;-9.41;100.00;102405.97;10281729;28;20061;-81
2022/12/18 08:28:00;;;;;;;41.77;23.47;;;;;;;-9.21;100.00;102411.56;10282714;28;20064;-81
2022/12/18 08:33:03;;;;;;;47.40;25.00;;;;;;;-8.91;100.00;102411.78;10259379;28;20047;-81
2022/12/18 08:38:04;;;;;;;40.80;24.27;;;;;;;-8.62;100.00;102422.81;10265471;28;20039;-78
2022/12/18 08:48:24;;;;;;;45.10;25.47;;;;;;;-8.11;100.00;102423.56;10267984;28;20039;-79
2022/12/18 08:53:26;;;;;;;42.93;28.43;;;;;;;-7.77;100.00;102435.16;10249142;28;20035;-83
2022/12/18 08:58:27;;;;;;;;;;;;;;;-7.52;100.00;102408.22;10269283;28;20041;-80
2022/12/18 09:03:27;;;;;;;40.37;24.40;;;;;;;-7.27;100.00;102399.03;10272820;28;19922;-83
2022/12/18 09:08:28;;;;;;;43.47;28.23;;;;;;;-6.99;100.00;102380.97;10258317;28;20070;-81
2022/12/18 09:13:28;;;;;;;38.97;21.00;;;;;;;-6.65;100.00;102372.06;10281194;28;20050;-82
2022/12/18 09:18:29;;;;;;;41.90;25.03;;;;;;;-6.35;100.00;102374.50;10262142;28;20039;-82
2022/12/18 09:23:29;;;;;;;47.17;28.40;;;;;;;-6.09;100.00;102367.94;10256482;28;20484;-84
2022/12/18 09:28:30;;;;;;;40.63;26.67;;;;;;;-5.87;100.00;102378.53;10268193;28;20045;-83
2022/12/18 09:33:30;;;;;;;44.43;25.00;;;;;;;-5.64;100.00;102388.41;10279370;28;20049;-80
2022/12/18 09:38:31;;;;;;;44.47;27.13;;;;;;;-5.52;100.00;102392.63;10248523;28;20170;-78
2022/12/18 09:43:34;;;;;;;51.03;25.93;;;;;;;-5.36;100.00;102381.94;10265666;28;20046;-79
2022/12/18 09:48:40;;;;;;;50.50;29.10;;;;;;;-5.22;100.00;102366.88;10293229;28;20126;-82
2022/12/18 09:53:41;;;;;;;40.00;23.95;;;;;;;-5.00;100.00;102367.19;10269609;28;20042;-81
2022/12/18 09:58:45;;;;;;;43.27;28.27;;;;;;;-4.69;100.00;102357.56;10302978;28;20050;-81
2022/12/18 10:03:45;;;;;;;47.80;31.15;;;;;;;-4.30;100.00;102349.13;10281431;28;20055;-79
2022/12/18 10:08:51;;;;;;;39.37;25.80;;;;;;;-4.03;100.00;102362.75;10284267;28;20154;-82
2022/12/18 10:13:59;;;;;;;45.15;25.45;;;;;;;-3.81;100.00;102350.19;10279341;28;20043;-81
2022/12/18 10:19:18;;;;;;;39.50;23.38;;;;;;;-3.60;100.00;102331.56;10278867;28;20046;-81
2022/12/18 10:24:27;;;;;;;34.40;23.33;;;;;;;-3.60;100.00;102332.47;10280753;28;20051;-81
2022/12/18 10:29:28;;;;;;;34.42;23.80;;;;;;;-3.51;100.00;102322.50;10312098;28;20506;-81
2022/12/18 10:34:28;;;;;;;30.57;21.10;;;;;;;-3.37;100.00;102328.44;10318977;28;20031;-83
2022/12/18 10:39:29;;;;;;;34.78;20.80;;;;;;;-3.32;100.00;102323.16;10318132;28;20386;-81
2022/12/18 10:44:29;;;;;;;35.27;20.53;;;;;;;-3.37;100.00;102308.88;10281015;28;20066;-81
2022/12/18 10:49:31;;;;;;;35.55;20.73;;;;;;;-3.29;100.00;102305.63;10279068;28;20119;-82
2022/12/18 10:54:32;;;;;;;32.85;19.40;;;;;;;-3.43;100.00;102278.31;10223745;28;20075;-81
2022/12/18 10:59:33;;;;;;;36.50;21.33;;;;;;;-3.40;100.00;102275.19;10223549;28;20118;-82
2022/12/18 11:04:35;;;;;;;35.47;19.37;;;;;;;-3.20;100.00;102257.22;10223572;28;20041;-82
2022/12/18 11:09:42;;;;;;;32.60;18.08;;;;;;;-3.06;100.00;102256.38;10471205;28;20955;-78
2022/12/18 11:14:47;;;;;;;29.97;18.73;;;;;;;-3.01;100.00;102247.59;10470877;28;22829;-82
2022/12/18 11:20:02;;;;;;;35.47;19.35;;;;;;;-3.03;100.00;102245.59;10473843;28;20127;-81
2022/12/18 11:25:12;;;;;;;21.67;15.00;;;;;;;-3.05;100.00;102239.38;10430277;28;20080;-82
2022/12/18 11:30:24;;;;;;;30.38;17.90;;;;;;;-2.95;100.00;102225.31;10462083;28;20608;-81
2022/12/18 11:35:44;;;;;;;26.83;16.33;;;;;;;-2.80;100.00;102225.38;10469745;28;20037;-83
2022/12/18 11:40:48;;;;;;;33.22;18.75;;;;;;;-2.60;100.00;102224.31;10449163;28;20041;-82
2022/12/18 11:45:54;;;;;;;33.20;18.27;;;;;;;-2.56;100.00;102231.66;10475734;28;20044;-83
2022/12/18 11:50:56;;;;;;;29.65;16.95;;;;;;;-2.43;100.00;102219.59;10452846;28;20040;-82
2022/12/18 11:56:16;;;;;;;33.63;18.85;;;;;;;-2.42;98.67;102210.28;10484628;28;20071;-83
2022/12/18 12:01:35;;;;;;;27.70;16.98;;;;;;;-2.39;98.91;102205.53;10512979;28;20059;-83
2022/12/18 12:07:07;;;;;;;26.30;18.40;;;;;;;-2.34;98.28;102198.38;10487314;28;20451;-83
2022/12/18 12:12:26;;;;;;;30.25;18.38;;;;;;;-2.22;99.48;102189.59;10469426;28;20076;-81
2022/12/18 12:17:37;;;;;;;30.02;19.13;;;;;;;-2.13;100.00;102197.50;10466210;28;20029;-80
2022/12/18 12:22:42;;;;;;;25.55;16.17;;;;;;;-2.03;99.78;102179.91;10442440;28;20064;-82
2022/12/18 12:27:56;;;;;;;27.73;18.35;;;;;;;-1.96;96.64;102164.50;10446879;28;20033;-81
2022/12/18 12:33:31;;;;;;;26.05;15.95;;;;;;;-2.01;92.91;102149.28;10444939;28;20041;-83
2022/12/18 12:38:35;;;;;;;25.08;15.75;;;;;;;-1.85;94.74;102157.16;10441648;28;20048;-81
2022/12/18 12:43:46;;;;;;;26.50;18.95;;;;;;;-1.89;93.10;102143.03;10440380;28;20112;-81
2022/12/18 12:48:51;;;;;;;26.33;15.90;;;;;;;-1.98;91.12;102142.88;10442550;28;20497;-81
2022/12/18 12:53:52;;;;;;;25.80;16.88;;;;;;;-1.95;91.13;102138.09;10399022;28;20069;-81
2022/12/18 12:59:02;;;;;;;25.00;16.27;;;;;;;-1.90;90.92;102140.28;10401011;28;20090;-82
2022/12/18 13:04:36;;;;;;;25.70;17.23;;;;;;;-1.78;91.52;102118.63;10410237;28;20121;-79
2022/12/18 13:10:15;;;;;;;28.17;17.25;;;;;;;-1.70;89.43;102105.03;10438401;28;20037;-82
2022/12/18 13:15:21;;;;;;;26.85;17.73;;;;;;;-1.65;88.28;102088.53;10398775;28;20037;-82
2022/12/18 13:20:21;;;;;;;29.67;15.77;;;;;;;-1.74;87.68;102090.03;10400647;28;20033;-82
2022/12/18 13:25:32;;;;;;;29.95;19.70;;;;;;;-1.75;87.71;102075.34;10402060;28;20120;-81
2022/12/18 13:30:32;;;;;;;26.55;16.55;;;;;;;-1.73;86.96;102067.81;10395857;28;20030;-83
2022/12/18 13:35:43;;;;;;;35.38;19.80;;;;;;;-1.80;85.56;102072.25;10386985;28;20087;-82
2022/12/18 13:40:46;;;;;;;39.38;19.92;;;;;;;-1.79;86.43;102076.63;10400497;28;20049;-82
2022/12/18 13:46:23;;;;;;;28.45;17.90;;;;;;;-1.85;86.27;102073.34;10438429;28;20049;-83
2022/12/18 13:51:24;;;;;;;25.65;16.38;;;;;;;-1.87;86.54;102063.66;10441145;28;20041;-83
2022/12/18 13:56:27;;;;;;;25.77;17.92;;;;;;;-1.94;87.16;102059.44;10442672;28;20432;-85
2022/12/18 14:01:28;;;;;;;25.63;16.20;;;;;;;-2.01;87.38;102046.63;10440627;28;20068;-83
2022/12/18 14:06:32;;;;;;;37.00;16.30;;;;;;;-1.92;86.46;102055.41;10439193;28;20045;-82
2022/12/18 14:11:33;;;;;;;30.13;18.98;;;;;;;-1.97;86.75;102052.31;10398536;28;20111;-83
2022/12/18 14:16:33;;;;;;;33.95;17.73;;;;;;;-1.97;86.84;102047.19;10410115;28;20071;-81
2022/12/18 14:21:36;;;;;;;27.33;18.20;;;;;;;-2.00;86.67;102057.09;10432871;28;20053;-84
2022/12/18 14:26:37;;;;;;;27.08;17.65;;;;;;;-2.02;86.63;102057.63;10400458;28;20409;-82
2022/12/18 14:31:38;;;;;;;31.40;18.88;;;;;;;-2.07;87.79;102059.69;10398482;28;20120;-82
2022/12/18 14:36:39;;;;;;;32.53;18.58;;;;;;;-2.13;88.63;102064.09;10399876;28;20377;-81
2022/12/18 14:41:40;;;;;;;33.35;20.92;;;;;;;-2.06;86.81;102064.06;10402560;28;20083;-81
2022/12/18 14:46:47;;;;;;;28.48;16.90;;;;;;;-2.09;86.12;102056.91;10442129;28;20044;-84
2022/12/18 14:52:28;;;;;;;27.80;16.73;;;;;;;-2.13;86.94;102065.00;10421886;28;20033;-87
2022/12/18 14:57:36;;;;;;;33.63;17.35;;;;;;;-2.17;87.13;102061.91;10401398;28;20397;-85
2022/12/18 15:02:36;;;;;;;32.63;18.65;;;;;;;-2.24;86.48;102063.75;10435436;28;20120;-81
2022/12/18 15:07:56;;;;;;;28.90;18.10;;;;;;;-2.28;86.20;102063.19;10439131;28;20070;-81
2022/12/18 15:12:59;;;;;;;32.90;19.95;;;;;;;-2.34;86.76;102049.63;10422833;28;20099;-82
2022/12/18 15:18:00;;;;;;;31.80;19.58;;;;;;;-2.39;86.51;102052.56;10439159;28;20037;-82
2022/12/18 15:23:00;;;;;;;26.33;17.67;;;;;;;-2.47;86.58;102044.72;10442686;28;20053;-83
2022/12/18 15:28:01;;;;;;;36.90;20.00;;;;;;;-2.46;86.55;102055.13;10376411;28;20038;-81
2022/12/18 15:33:24;;;;;;;30.33;19.85;;;;;;;-2.54;87.89;102045.63;10385473;28;20465;-83
2022/12/18 15:38:25;;;;;;;31.15;19.25;;;;;;;-2.60;88.59;102045.81;10439260;28;20029;-83
2022/12/18 15:43:34;;;;;;;29.63;20.40;;;;;;;-2.60;90.00;102043.25;10418094;28;20040;-78
2022/12/18 15:48:38;;;;;;;38.58;20.42;;;;;;;-2.66;89.71;102032.28;10450431;28;20044;-81
2022/12/18 15:53:39;;;;;;;41.10;23.58;;;;;;;-2.58;89.87;102030.59;10456780;28;20481;-81
2022/12/18 15:58:39;;;;;;;39.95;21.92;;;;;;;-2.68;90.72;102028.59;10445022;28;20040;-82
2022/12/18 16:03:40;;;;;;;30.90;19.90;;;;;;;-2.64;90.79;102033.38;10470717;28;20068;-84
2022/12/18 16:08:40;;;;;;;34.92;21.95;;;;;;;-2.63;90.11;102042.88;10472900;28;20205;-80
2022/12/18 16:13:41;;;;;;;36.00;21.13;;;;;;;-2.65;90.93;102036.66;10447749;28;20132;-78
2022/12/18 16:18:41;;;;;;;31.17;18.17;;;;;;;-2.67;90.70;102033.00;10487943;28;20070;-78
2022/12/18 16:23:42;;;;;;;30.80;20.88;;;;;;;-2.64;90.90;102024.75;10471142;28;20112;-78
2022/12/18 16:28:43;;;;;;;38.55;22.83;;;;;;;-2.68;90.87;102024.38;10452443;28;20047;-81
2022/12/18 16:33:43;;;;;;;37.63;21.70;;;;;;;-2.64;89.97;102011.94;10460044;28;20415;-82
2022/12/18 16:38:44;;;;;;;30.92;18.55;;;;;;;-2.65;90.54;102008.47;10442486;28;20049;-84
2022/12/18 16:43:44;;;;;;;38.92;23.30;;;;;;;-2.67;91.45;102005.72;10446500;28;20134;-80
2022/12/18 16:48:45;;;;;;;31.95;21.55;;;;;;;-2.70;91.75;102010.47;10436686;28;20120;-78
2022/12/18 16:53:45;;;;;;;30.42;19.77;;;;;;;-2.69;92.33;102001.16;10482236;28;20032;-79
2022/12/18 16:58:53;;;;;;;35.28;21.92;;;;;;;-2.72;93.10;102004.25;10408100;28;20405;-81
2022/12/18 17:03:58;;;;;;;35.95;24.38;;;;;;;-2.73;92.54;101994.72;10417386;28;20040;-80
2022/12/18 17:09:00;;;;;;;35.40;23.65;;;;;;;-2.72;92.24;101985.41;10452199;28;20049;-78
2022/12/18 17:14:08;;;;;;;36.95;22.75;;;;;;;-2.75;92.67;101977.34;10424310;28;20365;-78
2022/12/18 17:19:09;;;;;;;37.85;22.25;;;;;;;-2.72;92.38;101976.06;10438098;28;20044;-78
2022/12/18 17:24:10;;;;;;;38.90;21.63;;;;;;;-2.74;92.87;101980.09;10442443;28;20033;-78
2022/12/18 17:29:15;;;;;;;34.88;23.23;;;;;;;-2.83;93.47;101977.34;10452751;28;20132;-79
2022/12/18 17:34:16;;;;;;;39.05;23.27;;;;;;;-2.76;93.65;101968.72;10426124;28;20041;-80
2022/12/18 17:39:18;;;;;;;35.10;23.00;;;;;;;-2.78;94.29;101980.44;10448251;28;20041;-78
2022/12/18 17:44:18;;;;;;;37.20;21.02;;;;;;;-2.72;93.76;101990.53;10452615;28;20048;-79
2022/12/18 17:49:19;;;;;;;39.13;24.52;;;;;;;-2.72;93.78;101965.81;10482679;28;20115;-79
2022/12/18 17:54:19;;;;;;;35.97;22.67;;;;;;;-2.72;94.19;101978.63;10444807;28;20051;-79
2022/12/18 17:59:20;;;;;;;35.35;22.02;;;;;;;-2.68;94.71;101985.94;10442506;28;20481;-79
2022/12/18 18:04:20;;;;;;;40.70;24.52;;;;;;;-2.69;94.86;101986.66;10444572;28;20120;-79
2022/12/18 18:09:21;;;;;;;35.72;23.80;;;;;;;-2.76;95.38;101981.53;10446287;28;20055;-80
2022/12/18 18:14:21;;;;;;;41.45;25.15;;;;;;;-2.76;95.88;101978.97;10443665;28;20037;-80
2022/12/18 18:19:22;;;;;;;40.53;24.23;;;;;;;-2.67;95.67;101984.31;10442165;28;20063;-80
2022/12/18 18:24:24;;;;;;;41.50;23.60;;;;;;;-2.61;96.67;101978.97;10424480;28;20037;-81
2022/12/18 18:29:25;;;;;;;33.60;23.70;;;;;;;-2.58;96.03;101992.16;10441588;28;20471;-80
2022/12/18 18:34:27;;;;;;;43.60;25.58;;;;;;;-2.55;96.50;101967.81;10440508;28;20094;-82
2022/12/18 18:39:27;;;;;;;48.13;26.00;;;;;;;-2.44;96.63;101965.59;10440100;28;20041;-81
2022/12/18 18:44:28;;;;;;;40.35;21.75;;;;;;;-2.40;96.31;101962.66;10423665;28;20037;-80
2022/12/18 18:49:30;;;;;;;37.42;23.15;;;;;;;-2.38;96.19;101953.50;10441695;28;20049;-80
2022/12/18 18:54:30;;;;;;;38.60;21.33;;;;;;;-2.38;96.47;101964.66;10440056;28;20033;-80
2022/12/18 18:59:31;;;;;;;41.63;21.85;;;;;;;-2.35;97.19;101956.41;10442585;28;20076;-81
2022/12/18 19:04:32;;;;;;;38.35;23.70;;;;;;;-2.30;97.26;101955.31;10440034;28;20033;-81
2022/12/18 19:09:35;;;;;;;32.75;20.40;;;;;;;-2.25;97.28;101960.94;10442045;28;20048;-80
2022/12/18 19:14:35;;;;;;;30.20;20.58;;;;;;;-2.23;97.14;101957.84;10439868;28;20485;-80
2022/12/18 19:19:36;;;;;;;38.15;22.13;;;;;;;-2.20;96.64;101952.13;10440710;28;20063;-80
2022/12/18 19:24:36;;;;;;;36.45;22.65;;;;;;;-2.10;96.28;101949.91;10424515;28;20037;-79
2022/12/18 19:29:37;;;;;;;32.50;20.70;;;;;;;-2.07;96.43;101964.75;10444577;28;20040;-81
2022/12/18 19:34:37;;;;;;;38.25;22.00;;;;;;;-2.09;96.18;101954.28;10447982;28;20170;-81
2022/12/18 19:39:38;;;;;;;40.25;21.35;;;;;;;-2.02;95.97;101970.41;10448161;28;20040;-81
2022/12/18 19:44:38;;;;;;;34.47;23.27;;;;;;;-2.02;96.71;101970.41;10447195;28;20043;-81
2022/12/18 19:49:39;;;;;;;41.97;26.48;;;;;;;-2.01;97.08;101969.66;10447162;28;20026;-81
2022/12/18 19:54:39;;;;;;;36.03;22.42;;;;;;;-2.05;98.69;101968.41;10447856;28;20063;-80
2022/12/18 19:59:40;;;;;;;33.75;21.95;;;;;;;-2.06;98.89;101981.97;10448016;28;20102;-78
2022/12/18 20:04:40;;;;;;;34.83;22.25;;;;;;;-2.04;100.00;101977.00;10429971;28;20036;-81
2022/12/18 20:09:41;;;;;;;35.10;22.45;;;;;;;-2.05;100.00;101975.19;10447797;28;20127;-80
2022/12/18 20:14:41;;;;;;;46.97;23.85;;;;;;;-2.12;100.00;101978.69;10448902;28;20124;-79
2022/12/18 20:19:42;;;;;;;38.47;27.17;;;;;;;-2.13;100.00;101975.19;10448439;28;20465;-80
2022/12/18 20:24:42;;;;;;;38.78;23.58;;;;;;;-2.15;100.00;101979.25;10446172;28;20059;-80
2022/12/18 20:29:43;;;;;;;46.35;29.38;;;;;;;-2.12;100.00;101987.28;10448509;28;20393;-80
2022/12/18 20:34:43;;;;;;;41.72;26.98;;;;;;;-2.19;100.00;101977.06;10446301;28;20500;-80
2022/12/18 20:39:44;;;;;;;47.72;27.38;;;;;;;-2.20;100.00;101988.03;10446555;28;20033;-81
2022/12/18 20:44:44;;;;;;;43.05;28.55;;;;;;;-2.24;100.00;101973.97;10429591;28;20531;-81
2022/12/18 20:49:45;;;;;;;46.17;30.42;;;;;;;-2.26;100.00;101984.75;10446246;28;20032;-81
2022/12/18 20:54:46;;;;;;;49.35;31.92;;;;;;;-2.30;100.00;101990.28;10444185;28;20449;-81
2022/12/18 20:59:46;;;;;;;53.25;31.83;;;;;;;-2.28;100.00;101986.25;10446167;28;20041;-82
2022/12/18 21:04:47;;;;;;;62.67;37.47;;;;;;;-2.42;100.00;101976.94;10445603;28;20044;-82
2022/12/18 21:09:47;;;;;;;51.83;32.33;;;;;;;-2.43;100.00;101972.56;10442042;28;20120;-82
2022/12/18 21:14:48;;;;;;;57.13;33.65;;;;;;;-2.42;100.00;101970.16;10440718;28;20041;-81
2022/12/18 21:19:48;;;;;;;53.00;35.60;;;;;;;-2.45;100.00;101963.75;10442272;28;20029;-81
2022/12/18 21:24:49;;;;;;;53.08;32.05;;;;;;;-2.55;100.00;101965.25;10443484;28;20041;-81
2022/12/18 21:29:51;;;;;;;54.80;34.42;;;;;;;-2.55;100.00;101960.13;10443697;28;20034;-81
2022/12/18 21:34:51;;;;;;;58.47;34.42;;;;;;;-2.56;100.00;101955.72;10445035;28;20045;-81
2022/12/18 21:39:52;;;;;;;57.20;31.65;;;;;;;-2.56;100.00;101942.91;10446168;28;20076;-79
2022/12/18 21:44:52;;;;;;;63.22;34.22;;;;;;;-2.51;100.00;101931.53;10445156;28;20053;-82
2022/12/18 21:49:53;;;;;;;57.78;33.80;;;;;;;-2.54;100.00;101928.63;10442334;28;20035;-81
2022/12/18 21:54:53;;;;;;;58.20;32.75;;;;;;;-2.50;100.00;101919.63;10445013;28;20033;-81
2022/12/18 21:59:54;;;;;;;63.22;39.40;;;;;;;-2.44;100.00;101920.34;10443956;28;20035;-81
2022/12/18 22:04:54;;;;;;;55.63;36.35;;;;;;;-2.45;100.00;101921.06;10444107;28;20505;-82
2022/12/18 22:09:55;;;;;;;55.92;37.00;;;;;;;-2.35;100.00;101907.69;10443480;28;20036;-83
2022/12/18 22:14:55;;;;;;;61.88;38.05;;;;;;;-2.29;100.00;101894.66;10444743;28;20132;-83
2022/12/18 22:19:56;;;;;;;54.88;36.90;;;;;;;-2.28;100.00;101891.34;10442680;28;20378;-83
2022/12/18 22:24:56;;;;;;;56.58;37.70;;;;;;;-2.32;100.00;101884.03;10441995;28;20039;-82
2022/12/18 22:30:02;;;;;;;64.07;41.47;;;;;;;-2.29;100.00;101879.25;10443392;28;20055;-82
2022/12/18 22:35:04;;;;;;;56.78;36.15;;;;;;;-2.23;100.00;101868.06;10447222;28;20036;-82
2022/12/18 22:40:05;;;;;;;61.60;39.88;;;;;;;-2.17;100.00;101852.44;10466959;28;20057;-83